sensor_id;sensor_type;location;lat;lon;timestamp;pressure;altitude;pressure_sealevel;temperature;humidity
3812;BME280;1921;49.368;11.068;2022-10-30T00:00:40;98116.47;;;15.76;100.00
3812;BME280;1921;49.368;11.068;2022-10-30T00:03:14;98115.69;;;15.82;100.00
3812;BME280;1921;49.368;11.068;2022-10-30T00:05:46;98148.72;;;15.98;100.00
3812;BME280;1921;49.368;11.068;2022-10-30T00:08:15;98123.78;;;15.81;100.00
3812;BME280;1921;49.368;11.068;2022-10-30T00:10:42;98115.69;;;15.82;100.00
3812;BME280;1921;49.368;11.068;2022-10-30T00:13:09;98145.28;;;15.98;100.00
3812;BME280;1921;49.368;11.068;2022-10-30T00:15:35;97946.03;;;14.71;100.00
3812;BME280;1921;49.368;11.068;2022-10-30T00:18:02;98103.28;;;15.63;100.00
3812;BME280;1921;49.368;11.068;2022-10-30T00:20:28;98095.94;;;15.52;100.00
3812;BME280;1921;49.368;11.068;2022-10-30T00:22:53;98114.34;;;15.58;100.00
3812;BME280;1921;49.368;11.068;2022-10-30T00:25:19;98091.19;;;15.34;100.00
3812;BME280;1921;49.368;11.068;2022-10-30T00:27:45;98153.28;;;15.70;100.00
3812;BME280;1921;49.368;11.068;2022-10-30T00:30:11;98137.84;;;15.60;100.00
3812;BME280;1921;49.368;11.068;2022-10-30T00:32:37;98116.75;;;15.47;100.00
3812;BME280;1921;49.368;11.068;2022-10-30T00:35:03;97987.03;;;14.72;100.00
3812;BME280;1921;49.368;11.068;2022-10-30T00:37:29;98103.22;;;15.50;100.00
3812;BME280;1921;49.368;11.068;2022-10-30T00:39:55;98153.72;;;15.80;100.00
3812;BME280;1921;49.368;11.068;2022-10-30T00:42:21;98093.09;;;15.47;100.00
3812;BME280;1921;49.368;11.068;2022-10-30T00:44:49;98115.00;;;15.60;100.00
3812;BME280;1921;49.368;11.068;2022-10-30T00:47:19;98143.19;;;15.80;100.00
3812;BME280;1921;49.368;11.068;2022-10-30T00:50:06;98095.50;;;15.42;100.00
3812;BME280;1921;49.368;11.068;2022-10-30T00:53:20;98081.66;;;15.26;100.00
3812;BME280;1921;49.368;11.068;2022-10-30T00:55:33;98144.19;;;15.72;100.00
3812;BME280;1921;49.368;11.068;2022-10-30T00:58:03;98127.31;;;15.60;100.00
3812;BME280;1921;49.368;11.068;2022-10-30T01:00:32;98110.88;;;15.51;100.00
3812;BME280;1921;49.368;11.068;2022-10-30T01:03:01;98088.56;;;15.34;100.00
3812;BME280;1921;49.368;11.068;2022-10-30T01:05:29;98139.09;;;15.64;100.00
3812;BME280;1921;49.368;11.068;2022-10-30T01:07:56;98110.25;;;15.43;100.00
3812;BME280;1921;49.368;11.068;2022-10-30T01:10:22;98118.75;;;15.45;100.00
3812;BME280;1921;49.368;11.068;2022-10-30T01:12:50;98088.53;;;15.27;100.00
3812;BME280;1921;49.368;11.068;2022-10-30T01:15:23;98126.25;;;15.48;100.00
3812;BME280;1921;49.368;11.068;2022-10-30T01:18:15;98139.47;;;15.61;100.00
3812;BME280;1921;49.368;11.068;2022-10-30T01:21:03;98135.59;;;15.57;100.00
3812;BME280;1921;49.368;11.068;2022-10-30T01:26:45;98136.56;;;15.49;100.00
3812;BME280;1921;49.368;11.068;2022-10-30T01:32:17;98125.03;;;15.44;100.00
3812;BME280;1921;49.368;11.068;2022-10-30T01:35:39;98133.50;;;15.46;100.00
3812;BME280;1921;49.368;11.068;2022-10-30T01:38:11;98081.66;;;15.20;100.00
3812;BME280;1921;49.368;11.068;2022-10-30T01:40:43;98117.13;;;15.44;100.00
3812;BME280;1921;49.368;11.068;2022-10-30T01:43:10;98112.66;;;15.38;100.00
3812;BME280;1921;49.368;11.068;2022-10-30T01:45:58;98132.56;;;15.53;100.00
3812;BME280;1921;49.368;11.068;2022-10-30T01:49:10;98081.66;;;15.26;100.00
3812;BME280;1921;49.368;11.068;2022-10-30T01:51:47;98123.03;;;15.52;100.00
3812;BME280;1921;49.368;11.068;2022-10-30T01:57:15;98067.91;;;15.18;100.00
3812;BME280;1921;49.368;11.068;2022-10-30T01:59:49;98101.53;;;15.35;100.00
3812;BME280;1921;49.368;11.068;2022-10-30T02:02:16;98064.22;;;15.12;100.00
3812;BME280;1921;49.368;11.068;2022-10-30T02:04:42;98047.41;;;15.00;100.00
3812;BME280;1921;49.368;11.068;2022-10-30T02:07:10;97974.81;;;14.51;100.00
3812;BME280;1921;49.368;11.068;2022-10-30T02:09:37;98112.69;;;15.44;100.00
3812;BME280;1921;49.368;11.068;2022-10-30T02:12:03;98107.03;;;15.41;100.00
3812;BME280;1921;49.368;11.068;2022-10-30T02:14:35;98074.19;;;15.23;100.00
3812;BME280;1921;49.368;11.068;2022-10-30T02:17:03;98086.16;;;15.32;100.00
3812;BME280;1921;49.368;11.068;2022-10-30T02:19:30;98070.09;;;15.14;100.00
3812;BME280;1921;49.368;11.068;2022-10-30T02:21:56;98115.09;;;15.39;100.00
3812;BME280;1921;49.368;11.068;2022-10-30T02:24:22;98093.59;;;15.22;100.00
3812;BME280;1921;49.368;11.068;2022-10-30T02:26:48;98059.53;;;15.01;100.00
3812;BME280;1921;49.368;11.068;2022-10-30T02:29:13;98099.25;;;15.26;100.00
3812;BME280;1921;49.368;11.068;2022-10-30T02:31:39;98108.59;;;15.28;100.00
3812;BME280;1921;49.368;11.068;2022-10-30T02:34:05;98042.28;;;14.85;100.00
3812;BME280;1921;49.368;11.068;2022-10-30T02:36:31;98040.22;;;14.80;100.00
3812;BME280;1921;49.368;11.068;2022-10-30T02:38:56;98044.44;;;14.75;100.00
3812;BME280;1921;49.368;11.068;2022-10-30T02:41:23;98068.72;;;14.84;100.00
3812;BME280;1921;49.368;11.068;2022-10-30T02:43:50;98054.50;;;14.71;100.00
3812;BME280;1921;49.368;11.068;2022-10-30T02:46:18;98050.66;;;14.67;100.00
3812;BME280;1921;49.368;11.068;2022-10-30T02:48:44;98043.53;;;14.61;100.00
3812;BME280;1921;49.368;11.068;2022-10-30T02:51:09;98067.63;;;14.71;100.00
3812;BME280;1921;49.368;11.068;2022-10-30T02:53:36;98054.81;;;14.55;100.00
3812;BME280;1921;49.368;11.068;2022-10-30T02:56:04;98037.72;;;14.44;100.00
3812;BME280;1921;49.368;11.068;2022-10-30T02:58:30;98076.66;;;14.62;100.00
3812;BME280;1921;49.368;11.068;2022-10-30T03:00:56;98026.09;;;14.25;100.00
3812;BME280;1921;49.368;11.068;2022-10-30T03:03:22;98048.94;;;14.32;100.00
3812;BME280;1921;49.368;11.068;2022-10-30T03:05:48;98058.69;;;14.38;100.00
3812;BME280;1921;49.368;11.068;2022-10-30T03:08:14;98092.78;;;14.59;100.00
3812;BME280;1921;49.368;11.068;2022-10-30T03:10:39;98051.75;;;14.30;100.00
3812;BME280;1921;49.368;11.068;2022-10-30T03:13:05;98058.38;;;14.26;100.00
3812;BME280;1921;49.368;11.068;2022-10-30T03:15:31;98086.97;;;14.42;100.00
3812;BME280;1921;49.368;11.068;2022-10-30T03:17:56;98055.44;;;14.14;100.00
3812;BME280;1921;49.368;11.068;2022-10-30T03:20:22;98057.88;;;14.16;100.00
3812;BME280;1921;49.368;11.068;2022-10-30T03:22:48;98067.34;;;14.10;100.00
3812;BME280;1921;49.368;11.068;2022-10-30T03:25:13;98092.19;;;14.14;100.00
3812;BME280;1921;49.368;11.068;2022-10-30T03:27:39;98039.84;;;13.85;100.00
3812;BME280;1921;49.368;11.068;2022-10-30T03:30:06;98035.75;;;13.76;100.00
3812;BME280;1921;49.368;11.068;2022-10-30T03:32:32;98071.63;;;13.96;100.00
3812;BME280;1921;49.368;11.068;2022-10-30T03:34:58;98038.66;;;13.66;100.00
3812;BME280;1921;49.368;11.068;2022-10-30T03:37:24;98044.09;;;13.64;100.00
3812;BME280;1921;49.368;11.068;2022-10-30T03:39:49;98043.72;;;13.67;100.00
3812;BME280;1921;49.368;11.068;2022-10-30T03:42:15;98057.66;;;13.68;100.00
3812;BME280;1921;49.368;11.068;2022-10-30T03:44:41;98074.25;;;13.75;100.00
3812;BME280;1921;49.368;11.068;2022-10-30T03:47:06;98083.28;;;13.72;100.00
3812;BME280;1921;49.368;11.068;2022-10-30T03:49:32;98085.47;;;13.69;100.00
3812;BME280;1921;49.368;11.068;2022-10-30T03:51:58;98043.06;;;13.44;100.00
3812;BME280;1921;49.368;11.068;2022-10-30T03:54:23;98030.72;;;13.38;100.00
3812;BME280;1921;49.368;11.068;2022-10-30T03:56:49;98084.41;;;13.63;100.00
3812;BME280;1921;49.368;11.068;2022-10-30T03:59:15;98013.22;;;13.24;100.00
3812;BME280;1921;49.368;11.068;2022-10-30T04:01:41;98064.75;;;13.38;100.00
3812;BME280;1921;49.368;11.068;2022-10-30T04:04:06;98085.88;;;13.51;100.00
3812;BME280;1921;49.368;11.068;2022-10-30T04:06:32;98033.88;;;13.18;100.00
3812;BME280;1921;49.368;11.068;2022-10-30T04:08:58;98084.88;;;13.52;100.00
3812;BME280;1921;49.368;11.068;2022-10-30T04:11:24;98047.09;;;13.25;100.00
3812;BME280;1921;49.368;11.068;2022-10-30T04:13:49;98062.13;;;13.38;100.00
3812;BME280;1921;49.368;11.068;2022-10-30T04:16:15;98075.94;;;13.46;100.00
3812;BME280;1921;49.368;11.068;2022-10-30T04:18:41;98069.63;;;13.41;100.00
3812;BME280;1921;49.368;11.068;2022-10-30T04:21:06;98009.88;;;13.00;100.00
3812;BME280;1921;49.368;11.068;2022-10-30T04:23:32;98027.09;;;13.09;100.00
3812;BME280;1921;49.368;11.068;2022-10-30T04:26:00;98060.59;;;13.29;100.00
3812;BME280;1921;49.368;11.068;2022-10-30T04:28:26;98033.00;;;13.11;100.00
3812;BME280;1921;49.368;11.068;2022-10-30T04:30:52;98098.72;;;13.46;100.00
3812;BME280;1921;49.368;11.068;2022-10-30T04:33:17;98043.34;;;13.19;100.00
3812;BME280;1921;49.368;11.068;2022-10-30T04:35:43;98049.25;;;13.22;100.00
3812;BME280;1921;49.368;11.068;2022-10-30T04:38:12;98022.06;;;13.08;100.00
3812;BME280;1921;49.368;11.068;2022-10-30T04:40:40;98071.34;;;13.34;100.00
3812;BME280;1921;49.368;11.068;2022-10-30T04:43:08;98077.19;;;13.51;100.00
3812;BME280;1921;49.368;11.068;2022-10-30T04:45:35;98067.81;;;13.41;100.00
3812;BME280;1921;49.368;11.068;2022-10-30T04:48:04;98047.78;;;13.34;100.00
3812;BME280;1921;49.368;11.068;2022-10-30T04:50:31;98044.16;;;13.20;100.00
3812;BME280;1921;49.368;11.068;2022-10-30T04:53:13;98091.66;;;13.46;100.00
3812;BME280;1921;49.368;11.068;2022-10-30T04:55:39;98047.06;;;13.10;100.00
3812;BME280;1921;49.368;11.068;2022-10-30T04:58:05;98059.53;;;13.08;100.00
3812;BME280;1921;49.368;11.068;2022-10-30T05:00:32;98023.16;;;12.84;100.00
3812;BME280;1921;49.368;11.068;2022-10-30T05:02:59;98064.13;;;13.06;100.00
3812;BME280;1921;49.368;11.068;2022-10-30T05:05:27;98088.94;;;13.10;100.00
3812;BME280;1921;49.368;11.068;2022-10-30T05:07:53;98082.56;;;12.98;100.00
3812;BME280;1921;49.368;11.068;2022-10-30T05:10:19;98087.97;;;12.97;100.00
3812;BME280;1921;49.368;11.068;2022-10-30T05:12:45;98056.56;;;12.67;100.00
3812;BME280;1921;49.368;11.068;2022-10-30T05:15:12;98073.69;;;12.70;100.00
3812;BME280;1921;49.368;11.068;2022-10-30T05:17:38;98111.97;;;12.85;100.00
3812;BME280;1921;49.368;11.068;2022-10-30T05:20:05;98062.94;;;12.50;100.00
3812;BME280;1921;49.368;11.068;2022-10-30T05:22:32;98039.25;;;12.28;100.00
3812;BME280;1921;49.368;11.068;2022-10-30T05:24:57;98067.41;;;12.41;100.00
3812;BME280;1921;49.368;11.068;2022-10-30T05:27:23;98076.44;;;12.38;100.00
3812;BME280;1921;49.368;11.068;2022-10-30T05:29:49;98066.88;;;12.31;100.00
3812;BME280;1921;49.368;11.068;2022-10-30T05:32:15;98062.69;;;12.22;100.00
3812;BME280;1921;49.368;11.068;2022-10-30T05:34:41;98085.50;;;12.28;100.00
3812;BME280;1921;49.368;11.068;2022-10-30T05:37:06;98112.53;;;12.43;100.00
3812;BME280;1921;49.368;11.068;2022-10-30T05:39:32;97983.19;;;11.47;100.00
3812;BME280;1921;49.368;11.068;2022-10-30T05:41:58;98105.81;;;12.26;100.00
3812;BME280;1921;49.368;11.068;2022-10-30T05:44:23;98054.72;;;11.92;100.00
3812;BME280;1921;49.368;11.068;2022-10-30T05:46:49;98123.75;;;12.29;100.00
3812;BME280;1921;49.368;11.068;2022-10-30T05:49:15;98101.16;;;12.13;100.00
3812;BME280;1921;49.368;11.068;2022-10-30T05:51:42;98081.47;;;12.02;100.00
3812;BME280;1921;49.368;11.068;2022-10-30T05:54:07;98082.78;;;11.98;100.00
3812;BME280;1921;49.368;11.068;2022-10-30T05:56:33;98062.06;;;11.97;100.00
3812;BME280;1921;49.368;11.068;2022-10-30T05:58:59;98114.06;;;12.37;100.00
3812;BME280;1921;49.368;11.068;2022-10-30T06:01:25;98067.81;;;12.15;100.00
3812;BME280;1921;49.368;11.068;2022-10-30T06:03:50;98068.72;;;12.22;100.00
3812;BME280;1921;49.368;11.068;2022-10-30T06:06:16;98105.13;;;12.47;100.00
3812;BME280;1921;49.368;11.068;2022-10-30T06:08:42;98091.22;;;12.31;100.00
3812;BME280;1921;49.368;11.068;2022-10-30T06:11:08;98053.63;;;12.09;100.00
3812;BME280;1921;49.368;11.068;2022-10-30T06:13:33;98079.75;;;12.32;100.00
3812;BME280;1921;49.368;11.068;2022-10-30T06:15:59;98118.03;;;12.48;100.00
3812;BME280;1921;49.368;11.068;2022-10-30T06:18:25;98128.75;;;12.76;100.00
3812;BME280;1921;49.368;11.068;2022-10-30T06:20:51;98126.84;;;12.85;100.00
3812;BME280;1921;49.368;11.068;2022-10-30T06:23:18;98069.38;;;12.62;100.00
3812;BME280;1921;49.368;11.068;2022-10-30T06:25:44;98113.63;;;13.01;100.00
3812;BME280;1921;49.368;11.068;2022-10-30T06:28:10;98079.13;;;12.83;100.00
3812;BME280;1921;49.368;11.068;2022-10-30T06:30:38;98071.81;;;12.93;100.00
3812;BME280;1921;49.368;11.068;2022-10-30T06:33:04;98051.97;;;12.99;100.00
3812;BME280;1921;49.368;11.068;2022-10-30T06:35:30;98097.28;;;13.29;100.00
3812;BME280;1921;49.368;11.068;2022-10-30T06:37:57;98065.50;;;13.17;100.00
3812;BME280;1921;49.368;11.068;2022-10-30T06:40:25;98058.91;;;13.21;100.00
3812;BME280;1921;49.368;11.068;2022-10-30T06:42:52;98102.28;;;13.60;100.00
3812;BME280;1921;49.368;11.068;2022-10-30T06:45:21;98043.84;;;13.23;100.00
3812;BME280;1921;49.368;11.068;2022-10-30T06:47:47;98106.91;;;13.58;100.00
3812;BME280;1921;49.368;11.068;2022-10-30T06:50:17;98046.97;;;13.18;100.00
3812;BME280;1921;49.368;11.068;2022-10-30T06:52:43;98135.81;;;13.64;100.00
3812;BME280;1921;49.368;11.068;2022-10-30T06:55:09;98097.47;;;13.42;100.00
3812;BME280;1921;49.368;11.068;2022-10-30T06:57:36;98092.13;;;13.50;100.00
3812;BME280;1921;49.368;11.068;2022-10-30T07:00:04;98132.94;;;13.95;100.00
3812;BME280;1921;49.368;11.068;2022-10-30T07:02:30;98109.16;;;13.97;100.00
3812;BME280;1921;49.368;11.068;2022-10-30T07:04:56;98121.91;;;14.21;100.00
3812;BME280;1921;49.368;11.068;2022-10-30T07:07:22;98081.69;;;13.93;100.00
3812;BME280;1921;49.368;11.068;2022-10-30T07:09:47;98099.44;;;14.12;100.00
3812;BME280;1921;49.368;11.068;2022-10-30T07:12:13;98078.19;;;14.07;100.00
3812;BME280;1921;49.368;11.068;2022-10-30T07:14:39;98100.34;;;14.26;100.00
3812;BME280;1921;49.368;11.068;2022-10-30T07:17:05;98111.78;;;14.40;100.00
3812;BME280;1921;49.368;11.068;2022-10-30T07:19:31;98074.13;;;14.26;100.00
3812;BME280;1921;49.368;11.068;2022-10-30T07:21:56;98070.75;;;14.32;100.00
3812;BME280;1921;49.368;11.068;2022-10-30T07:24:22;98090.31;;;14.51;100.00
3812;BME280;1921;49.368;11.068;2022-10-30T07:26:48;98100.72;;;14.66;100.00
3812;BME280;1921;49.368;11.068;2022-10-30T07:29:14;98118.44;;;14.85;100.00
3812;BME280;1921;49.368;11.068;2022-10-30T07:31:39;98066.19;;;14.69;100.00
3812;BME280;1921;49.368;11.068;2022-10-30T07:34:05;98101.53;;;15.01;100.00
3812;BME280;1921;49.368;11.068;2022-10-30T07:36:31;98102.59;;;15.06;100.00
3812;BME280;1921;49.368;11.068;2022-10-30T07:38:56;98124.53;;;15.27;100.00
3812;BME280;1921;49.368;11.068;2022-10-30T07:41:22;98076.31;;;15.06;100.00
3812;BME280;1921;49.368;11.068;2022-10-30T07:43:48;98156.63;;;15.57;100.00
3812;BME280;1921;49.368;11.068;2022-10-30T07:46:14;98047.81;;;14.69;100.00
3812;BME280;1921;49.368;11.068;2022-10-30T07:48:39;98137.00;;;15.53;100.00
3812;BME280;1921;49.368;11.068;2022-10-30T07:51:06;98118.00;;;15.57;100.00
3812;BME280;1921;49.368;11.068;2022-10-30T07:53:32;98136.72;;;15.82;100.00
3812;BME280;1921;49.368;11.068;2022-10-30T07:55:58;98102.94;;;15.73;100.00
3812;BME280;1921;49.368;11.068;2022-10-30T07:58:24;98155.25;;;16.09;99.49
3812;BME280;1921;49.368;11.068;2022-10-30T08:00:50;98128.50;;;16.05;99.42
3812;BME280;1921;49.368;11.068;2022-10-30T08:03:15;98110.88;;;15.99;98.53
3812;BME280;1921;49.368;11.068;2022-10-30T08:05:41;98145.94;;;16.26;98.43
3812;BME280;1921;49.368;11.068;2022-10-30T08:08:08;98147.19;;;16.37;97.75
3812;BME280;1921;49.368;11.068;2022-10-30T08:10:34;98120.03;;;16.30;98.09
3812;BME280;1921;49.368;11.068;2022-10-30T08:13:01;98105.25;;;16.22;96.66
3812;BME280;1921;49.368;11.068;2022-10-30T08:15:27;98165.22;;;16.60;96.97
3812;BME280;1921;49.368;11.068;2022-10-30T08:17:53;98118.44;;;16.35;95.32
3812;BME280;1921;49.368;11.068;2022-10-30T08:20:22;98072.66;;;16.10;96.45
3812;BME280;1921;49.368;11.068;2022-10-30T08:22:56;98129.59;;;16.71;96.69
3812;BME280;1921;49.368;11.068;2022-10-30T08:25:28;98008.50;;;16.11;97.04
3812;BME280;1921;49.368;11.068;2022-10-30T08:28:01;98127.31;;;17.14;96.62
3812;BME280;1921;49.368;11.068;2022-10-30T08:30:32;98118.16;;;17.23;89.42
3812;BME280;1921;49.368;11.068;2022-10-30T08:33:00;98126.63;;;17.38;90.76
3812;BME280;1921;49.368;11.068;2022-10-30T08:35:26;98085.75;;;17.16;89.15
3812;BME280;1921;49.368;11.068;2022-10-30T08:37:56;98133.88;;;17.56;86.95
3812;BME280;1921;49.368;11.068;2022-10-30T08:40:24;98146.28;;;17.49;88.75
3812;BME280;1921;49.368;11.068;2022-10-30T08:42:52;98098.31;;;17.79;87.19
3812;BME280;1921;49.368;11.068;2022-10-30T08:45:19;98071.88;;;18.17;84.73
3812;BME280;1921;49.368;11.068;2022-10-30T08:47:44;98099.44;;;19.21;83.48
3812;BME280;1921;49.368;11.068;2022-10-30T08:50:10;98144.97;;;19.96;79.30
3812;BME280;1921;49.368;11.068;2022-10-30T08:52:36;98030.50;;;19.82;74.72
3812;BME280;1921;49.368;11.068;2022-10-30T08:55:02;98112.81;;;20.88;70.54
3812;BME280;1921;49.368;11.068;2022-10-30T08:57:28;98138.75;;;21.73;68.10
3812;BME280;1921;49.368;11.068;2022-10-30T08:59:53;98072.84;;;21.98;65.55
3812;BME280;1921;49.368;11.068;2022-10-30T09:02:19;98123.34;;;22.44;66.22
3812;BME280;1921;49.368;11.068;2022-10-30T09:04:45;98113.44;;;23.28;62.91
3812;BME280;1921;49.368;11.068;2022-10-30T09:07:10;98127.00;;;23.93;58.30
3812;BME280;1921;49.368;11.068;2022-10-30T09:09:36;98017.19;;;23.15;58.75
3812;BME280;1921;49.368;11.068;2022-10-30T09:12:02;98084.28;;;23.82;55.17
3812;BME280;1921;49.368;11.068;2022-10-30T09:14:28;98112.72;;;23.16;59.34
3812;BME280;1921;49.368;11.068;2022-10-30T09:16:54;98090.84;;;23.53;57.21
3812;BME280;1921;49.368;11.068;2022-10-30T09:19:20;98076.84;;;23.19;57.64
3812;BME280;1921;49.368;11.068;2022-10-30T09:21:47;98135.34;;;24.55;55.25
3812;BME280;1921;49.368;11.068;2022-10-30T09:24:12;98117.13;;;25.16;53.02
3812;BME280;1921;49.368;11.068;2022-10-30T09:26:38;98100.91;;;25.33;51.82
3812;BME280;1921;49.368;11.068;2022-10-30T09:29:05;98088.03;;;25.88;49.35
3812;BME280;1921;49.368;11.068;2022-10-30T09:31:31;98107.59;;;26.29;49.20
3812;BME280;1921;49.368;11.068;2022-10-30T09:33:56;98048.16;;;25.66;49.91
3812;BME280;1921;49.368;11.068;2022-10-30T09:36:22;98133.03;;;26.93;47.49
3812;BME280;1921;49.368;11.068;2022-10-30T09:38:48;98104.06;;;27.20;46.02
3812;BME280;1921;49.368;11.068;2022-10-30T09:59:37;98125.88;;;28.17;44.59
3812;BME280;1921;49.368;11.068;2022-10-30T10:04:43;98093.97;;;28.50;42.88
3812;BME280;1921;49.368;11.068;2022-10-30T10:07:32;98123.09;;;29.01;43.17
3812;BME280;1921;49.368;11.068;2022-10-30T10:10:13;98139.63;;;29.61;42.16
3812;BME280;1921;49.368;11.068;2022-10-30T10:12:48;98082.22;;;29.04;41.80
3812;BME280;1921;49.368;11.068;2022-10-30T10:15:55;98089.38;;;29.14;42.21
3812;BME280;1921;49.368;11.068;2022-10-30T10:18:29;98084.94;;;28.99;42.10
3812;BME280;1921;49.368;11.068;2022-10-30T10:21:08;98132.72;;;29.55;40.99
3812;BME280;1921;49.368;11.068;2022-10-30T10:23:49;98057.38;;;29.36;41.40
3812;BME280;1921;49.368;11.068;2022-10-30T10:26:47;98034.78;;;29.61;40.63
3812;BME280;1921;49.368;11.068;2022-10-30T10:32:02;98108.22;;;30.70;38.13
3812;BME280;1921;49.368;11.068;2022-10-30T10:43:19;98095.97;;;32.10;36.85
3812;BME280;1921;49.368;11.068;2022-10-30T10:49:25;98096.06;;;32.63;35.62
3812;BME280;1921;49.368;11.068;2022-10-30T10:52:03;98050.56;;;32.57;34.72
3812;BME280;1921;49.368;11.068;2022-10-30T10:54:46;98050.44;;;32.62;35.30
3812;BME280;1921;49.368;11.068;2022-10-30T10:57:32;98064.75;;;28.78;41.32
3812;BME280;1921;49.368;11.068;2022-10-30T11:00:19;98081.75;;;28.97;41.21
3812;BME280;1921;49.368;11.068;2022-10-30T11:03:22;97958.13;;;27.18;44.01
3812;BME280;1921;49.368;11.068;2022-10-30T11:05:57;98038.81;;;26.86;47.30
3812;BME280;1921;49.368;11.068;2022-10-30T11:08:30;98032.41;;;28.64;42.85
3812;BME280;1921;49.368;11.068;2022-10-30T11:11:05;98033.03;;;29.89;41.31
3812;BME280;1921;49.368;11.068;2022-10-30T11:13:37;98026.69;;;30.64;39.22
3812;BME280;1921;49.368;11.068;2022-10-30T11:16:28;98070.41;;;31.57;37.79
3812;BME280;1921;49.368;11.068;2022-10-30T11:19:02;98055.50;;;31.87;37.15
3812;BME280;1921;49.368;11.068;2022-10-30T11:21:37;98018.63;;;31.83;36.57
3812;BME280;1921;49.368;11.068;2022-10-30T11:24:34;97969.75;;;31.62;35.39
3812;BME280;1921;49.368;11.068;2022-10-30T11:30:02;98057.81;;;32.48;34.98
3812;BME280;1921;49.368;11.068;2022-10-30T11:32:31;98003.09;;;32.33;35.13
3812;BME280;1921;49.368;11.068;2022-10-30T11:37:38;98046.50;;;32.37;34.06
3812;BME280;1921;49.368;11.068;2022-10-30T11:45:23;98053.41;;;31.71;36.56
3812;BME280;1921;49.368;11.068;2022-10-30T11:47:50;98032.97;;;31.92;36.68
3812;BME280;1921;49.368;11.068;2022-10-30T11:50:23;98047.28;;;32.15;36.26
3812;BME280;1921;49.368;11.068;2022-10-30T11:52:55;98026.44;;;32.07;36.29
3812;BME280;1921;49.368;11.068;2022-10-30T11:55:46;98072.78;;;32.54;36.85
3812;BME280;1921;49.368;11.068;2022-10-30T11:58:47;98035.59;;;32.28;37.67
3812;BME280;1921;49.368;11.068;2022-10-30T12:01:26;98073.91;;;32.30;36.85
3812;BME280;1921;49.368;11.068;2022-10-30T12:03:54;98072.63;;;31.55;36.64
3812;BME280;1921;49.368;11.068;2022-10-30T12:09:08;98063.63;;;31.05;38.01
3812;BME280;1921;49.368;11.068;2022-10-30T12:11:35;98072.34;;;31.02;38.94
3812;BME280;1921;49.368;11.068;2022-10-30T12:14:03;97896.19;;;29.50;39.06
3812;BME280;1921;49.368;11.068;2022-10-30T12:16:29;98007.44;;;29.92;39.79
3812;BME280;1921;49.368;11.068;2022-10-30T12:18:58;98059.59;;;30.10;41.01
3812;BME280;1921;49.368;11.068;2022-10-30T12:21:28;98017.25;;;29.45;40.88
3812;BME280;1921;49.368;11.068;2022-10-30T12:24:01;98050.84;;;29.66;42.37
3812;BME280;1921;49.368;11.068;2022-10-30T12:26:33;98030.28;;;29.75;42.53
3812;BME280;1921;49.368;11.068;2022-10-30T12:29:04;98039.84;;;30.00;42.02
3812;BME280;1921;49.368;11.068;2022-10-30T12:32:07;98013.81;;;29.96;41.20
3812;BME280;1921;49.368;11.068;2022-10-30T12:34:46;98049.66;;;30.43;41.42
3812;BME280;1921;49.368;11.068;2022-10-30T12:37:29;98053.97;;;30.76;40.31
3812;BME280;1921;49.368;11.068;2022-10-30T12:40:29;98043.28;;;30.99;40.10
3812;BME280;1921;49.368;11.068;2022-10-30T12:45:41;97937.63;;;29.30;39.96
3812;BME280;1921;49.368;11.068;2022-10-30T12:48:22;98032.78;;;30.04;39.68
3812;BME280;1921;49.368;11.068;2022-10-30T12:51:22;98043.84;;;30.68;39.07
3812;BME280;1921;49.368;11.068;2022-10-30T12:54:13;98022.41;;;31.04;38.93
3812;BME280;1921;49.368;11.068;2022-10-30T12:56:45;98007.13;;;31.41;37.69
3812;BME280;1921;49.368;11.068;2022-10-30T12:59:44;98003.16;;;31.75;37.13
3812;BME280;1921;49.368;11.068;2022-10-30T13:02:32;98010.94;;;32.21;36.97
3812;BME280;1921;49.368;11.068;2022-10-30T13:08:22;98036.38;;;32.74;34.85
3812;BME280;1921;49.368;11.068;2022-10-30T13:10:58;98034.03;;;32.50;34.75
3812;BME280;1921;49.368;11.068;2022-10-30T13:13:37;98015.34;;;31.72;36.20
3812;BME280;1921;49.368;11.068;2022-10-30T13:16:13;97993.47;;;31.24;36.27
3812;BME280;1921;49.368;11.068;2022-10-30T13:18:41;97990.56;;;30.65;37.83
3812;BME280;1921;49.368;11.068;2022-10-30T13:24:01;98021.84;;;29.63;39.87
3812;BME280;1921;49.368;11.068;2022-10-30T13:26:51;97986.50;;;29.13;40.59
3812;BME280;1921;49.368;11.068;2022-10-30T13:29:40;97984.91;;;28.88;41.96
3812;BME280;1921;49.368;11.068;2022-10-30T13:43:38;98022.53;;;27.47;47.65
3812;BME280;1921;49.368;11.068;2022-10-30T13:49:08;98021.34;;;27.63;46.56
3812;BME280;1921;49.368;11.068;2022-10-30T13:51:44;97976.34;;;27.16;48.07
3812;BME280;1921;49.368;11.068;2022-10-30T13:54:22;97941.84;;;27.09;47.81
3812;BME280;1921;49.368;11.068;2022-10-30T13:56:50;97970.28;;;27.44;47.11
3812;BME280;1921;49.368;11.068;2022-10-30T13:59:51;97985.16;;;27.71;47.42
3812;BME280;1921;49.368;11.068;2022-10-30T14:05:25;97982.28;;;27.96;46.77
3812;BME280;1921;49.368;11.068;2022-10-30T14:10:56;97929.56;;;28.15;46.37
3812;BME280;1921;49.368;11.068;2022-10-30T14:14:04;98031.16;;;28.80;46.81
3812;BME280;1921;49.368;11.068;2022-10-30T14:17:14;98002.81;;;28.45;46.93
3812;BME280;1921;49.368;11.068;2022-10-30T14:22:32;97991.13;;;27.97;47.85
3812;BME280;1921;49.368;11.068;2022-10-30T14:25:00;97980.91;;;27.59;48.95
3812;BME280;1921;49.368;11.068;2022-10-30T14:27:31;98009.38;;;27.45;49.67
3812;BME280;1921;49.368;11.068;2022-10-30T14:29:58;97989.53;;;26.97;50.75
3812;BME280;1921;49.368;11.068;2022-10-30T14:37:53;98013.75;;;26.41;53.20
3812;BME280;1921;49.368;11.068;2022-10-30T14:40:45;98019.63;;;26.27;54.87
3812;BME280;1921;49.368;11.068;2022-10-30T14:43:42;97970.94;;;25.69;54.99
3812;BME280;1921;49.368;11.068;2022-10-30T14:46:25;97971.94;;;25.33;56.56
3812;BME280;1921;49.368;11.068;2022-10-30T14:52:03;98002.97;;;24.86;58.20
3812;BME280;1921;49.368;11.068;2022-10-30T14:57:52;97992.41;;;24.22;60.96
3812;BME280;1921;49.368;11.068;2022-10-30T15:05:55;98027.41;;;23.99;63.64
3812;BME280;1921;49.368;11.068;2022-10-30T15:14:51;98029.25;;;23.44;66.39
3812;BME280;1921;49.368;11.068;2022-10-30T15:17:27;98036.25;;;23.28;67.28